Aérodrome :
LOGIN :

S'inscrire | Disclaimer

   EN    FR    IT 

 










Légende :    VFR   VFR Marginal   IFR   IFR Intensif   IFR Très Intensif
Visi : 
Plafond : 
>= 8 km
>= 3000ft
5 à 8 km
1000 à 3000 ft
1500m à 5 km
500 à 1000 ft
800 à 1500m
200 à 500 ft
< 800m
< 200 ft
Symboles :   Orages  Brouillard  Fortes neiges  Fortes précipitations  Vent > 20 kt
SIGMETs :   Divers  Orages  Givrage  Turbulence  Onde Orograph.  Cendres Volcan.







- Altitude de l'aérodrome : 138 ft
- Code IATA : BIO


LEBB - Bilbao

DERNIER METAR :
  • 192030Z 00000KT CAVOK 13/12 Q1025 NOSIG

METARs EXPIRÉS :
  • 192000Z 08002KT CAVOK 13/12 Q1025 NOSIG
  • 191930Z VRB01KT CAVOK 14/12 Q1025 NOSIG
  • 191900Z VRB01KT CAVOK 16/12 Q1025 NOSIG
  • 191830Z VRB02KT CAVOK 16/12 Q1025 NOSIG
  • 191800Z 06003KT 030V090 CAVOK 18/12 Q1025 NOSIG
  • 191730Z 05005KT 360V080 CAVOK 19/12 Q1025 NOSIG

TAF TAF LEBB
Valide du 19 à 18h jusqu'au 20 à 18h UTC


191700Z 1918/2018 10005KT 9999 FEW030 TX23/2014Z TN10/2006Z
Pas de NOTAMs connus pour ce terrain.



MET'MAP, la Météo Aéronautique d'un coup d'oeil ! - Copyright ORBIFLY Décembre 2007 - Disclaimer

ORBIFLY MET'MAP TEAM :

Programmation & Développement : Alexandra Zaïnal
Conception & Développement : Baudouin d'Aumeries
Co-Programmation & Développement : Marc-Olivier Méhu
Soutien technique & logistique : Manuel Goepfert

Contact : metmap@orbifly.com




SOURCES & CREDITS :

   NOAA